Time;durP1;ratioP1;P1;durP2;ratioP2;P2;SDS_P1;SDS_P2;PMS_P1;PMS_P2;Temp;Humidity;BMP_temperature;BMP_pressure;BME280_temperature;BME280_humidity;BME280_pressure;Samples;Min_cycle;Max_cycle;Signal;HPM_P1;HPM_P2
2022/11/15 00:00:54;;;;;;;25.20;16.33;;;7.90;99.90;;;;;;4941443;29;20043;-77
2022/11/15 00:03:27;;;;;;;27.83;16.85;;;8.20;99.90;;;;;;4960852;28;20037;-77
2022/11/15 00:05:52;;;;;;;25.52;17.33;;;8.10;99.90;;;;;;4945089;29;20365;-78
2022/11/15 00:08:20;;;;;;;24.90;16.38;;;8.30;99.90;;;;;;4931263;28;20070;-77
2022/11/15 00:10:59;;;;;;;29.55;17.88;;;8.20;99.90;;;;;;4945113;28;20176;-78
2022/11/15 00:13:25;;;;;;;23.77;15.70;;;8.30;99.90;;;;;;4953671;28;20055;-77
2022/11/15 00:15:51;;;;;;;22.42;15.52;;;8.00;99.90;;;;;;4943194;28;20023;-78
2022/11/15 00:18:17;;;;;;;23.45;15.57;;;8.80;99.90;;;;;;4972802;28;20046;-77
2022/11/15 00:20:43;;;;;;;22.30;14.25;;;7.90;99.90;;;;;;4962386;28;20073;-78
2022/11/15 00:23:09;;;;;;;24.77;16.25;;;7.40;99.90;;;;;;4930667;28;20262;-77
2022/11/15 00:25:35;;;;;;;24.60;15.80;;;6.60;99.90;;;;;;4958709;28;20031;-78
2022/11/15 00:28:02;;;;;;;30.83;18.02;;;8.70;99.90;;;;;;4948268;28;20031;-77
2022/11/15 00:30:34;;;;;;;24.48;16.50;;;7.70;99.90;;;;;;4953041;28;20045;-77
2022/11/15 00:33:06;;;;;;;24.42;15.50;;;7.20;99.90;;;;;;4952401;28;20468;-77
2022/11/15 00:35:34;;;;;;;26.80;18.52;;;7.60;99.90;;;;;;4946083;28;20032;-77
2022/11/15 00:38:00;;;;;;;24.73;15.45;;;7.40;99.90;;;;;;4967640;28;20062;-78
2022/11/15 00:40:26;;;;;;;28.15;18.20;;;7.30;99.90;;;;;;4963167;28;20063;-78
2022/11/15 00:42:52;;;;;;;27.77;17.92;;;7.50;99.90;;;;;;4950533;28;20078;-78
2022/11/15 00:45:18;;;;;;;27.20;16.98;;;;;;;;;;4952144;28;20026;-79
2022/11/15 00:47:47;;;;;;;24.08;15.75;;;7.70;99.90;;;;;;4933084;29;20039;-78
2022/11/15 00:50:13;;;;;;;23.45;16.55;;;8.10;99.90;;;;;;4960132;28;20033;-80
2022/11/15 00:52:39;;;;;;;22.58;13.93;;;7.70;99.90;;;;;;4929045;28;20035;-78
2022/11/15 00:55:05;;;;;;;22.48;15.35;;;7.40;99.90;;;;;;4933730;28;20065;-78
2022/11/15 00:57:31;;;;;;;24.02;14.98;;;7.60;99.90;;;;;;4969382;28;20305;-78
2022/11/15 00:59:56;;;;;;;24.35;15.05;;;7.60;99.90;;;;;;4947390;28;20034;-80
2022/11/15 01:02:22;;;;;;;21.58;13.73;;;7.60;99.90;;;;;;4928100;28;20114;-78
2022/11/15 01:04:48;;;;;;;21.15;14.70;;;7.60;99.90;;;;;;4968850;28;20058;-79
2022/11/15 01:07:14;;;;;;;24.13;15.25;;;6.90;99.90;;;;;;4950972;28;20042;-77
2022/11/15 01:09:39;;;;;;;24.67;16.67;;;7.10;99.90;;;;;;4946622;29;20054;-78
2022/11/15 01:12:05;;;;;;;23.95;15.48;;;7.60;99.90;;;;;;4932503;28;20042;-77
2022/11/15 01:14:31;;;;;;;20.50;13.35;;;7.20;99.90;;;;;;4962698;28;20062;-79
2022/11/15 01:16:56;;;;;;;22.80;14.60;;;7.90;99.90;;;;;;4947558;28;20042;-77
2022/11/15 01:19:22;;;;;;;22.23;14.65;;;6.60;99.90;;;;;;4938684;28;20034;-77
2022/11/15 01:21:51;;;;;;;21.67;14.68;;;7.40;99.90;;;;;;4919685;28;20194;-77
2022/11/15 01:24:17;;;;;;;22.35;15.13;;;6.90;99.90;;;;;;4964691;28;20089;-77
2022/11/15 01:26:43;;;;;;;21.85;14.43;;;7.60;99.90;;;;;;4964051;28;20039;-77
2022/11/15 01:29:08;;;;;;;26.60;16.35;;;7.30;99.90;;;;;;4948777;28;20115;-77
2022/11/15 01:31:34;;;;;;;21.88;13.63;;;7.40;99.90;;;;;;4958890;28;20034;-77
2022/11/15 01:34:00;;;;;;;21.45;13.82;;;6.30;99.90;;;;;;4952008;28;20147;-78
2022/11/15 01:36:25;;;;;;;28.38;17.05;;;7.30;99.90;;;;;;4948060;29;20273;-78
2022/11/15 01:38:56;;;;;;;21.63;12.43;;;7.60;99.90;;;;;;4961771;28;20086;-78
2022/11/15 01:41:28;;;;;;;29.02;18.65;;;8.60;99.90;;;;;;4923535;28;20053;-78
2022/11/15 01:43:56;;;;;;;23.88;16.40;;;7.10;99.90;;;;;;4969036;28;20186;-78
2022/11/15 01:46:33;;;;;;;24.95;15.55;;;7.40;99.90;;;;;;4979272;28;20039;-77
2022/11/15 01:49:03;;;;;;;24.20;14.85;;;6.80;99.90;;;;;;4945804;28;20195;-78
2022/11/15 01:51:31;;;;;;;22.10;13.70;;;7.50;99.90;;;;;;4967818;28;20058;-80
2022/11/15 01:54:01;;;;;;;29.50;16.80;;;7.40;99.90;;;;;;4950503;28;20049;-78
2022/11/15 01:56:30;;;;;;;24.40;15.52;;;8.50;99.90;;;;;;4968635;28;20042;-77
2022/11/15 01:58:58;;;;;;;25.73;13.48;;;6.80;99.90;;;;;;4974163;28;20198;-79
2022/11/15 02:01:26;;;;;;;24.25;14.93;;;7.50;99.90;;;;;;4926247;28;20046;-79
2022/11/15 02:04:08;;;;;;;27.58;16.88;;;7.60;99.90;;;;;;4947680;28;20045;-78
2022/11/15 02:06:36;;;;;;;26.35;15.45;;;7.80;99.90;;;;;;4947535;29;20027;-78
2022/11/15 02:09:02;;;;;;;19.33;13.13;;;7.70;99.90;;;;;;4972102;28;20366;-79
2022/11/15 02:11:28;;;;;;;24.42;15.95;;;7.30;99.90;;;;;;4956594;28;20059;-82
2022/11/15 02:13:55;;;;;;;28.63;17.25;;;7.60;99.90;;;;;;4945904;28;20086;-78
2022/11/15 02:17:00;;;;;;;21.85;13.57;;;7.70;99.90;;;;;;4922780;28;20254;-80
2022/11/15 02:19:32;;;;;;;28.00;16.65;;;7.30;99.90;;;;;;4943758;28;20094;-79
2022/11/15 02:22:35;;;;;;;19.92;12.02;;;7.30;99.90;;;;;;4966826;28;20043;-80
2022/11/15 02:25:13;;;;;;;28.77;16.63;;;7.20;99.90;;;;;;4943591;29;20248;-79
2022/11/15 02:27:41;;;;;;;19.02;11.63;;;8.50;99.90;;;;;;4940006;29;20023;-79
2022/11/15 02:30:22;;;;;;;22.02;12.40;;;7.70;99.90;;;;;;4962286;28;20294;-80
2022/11/15 02:33:08;;;;;;;24.50;13.98;;;7.40;99.90;;;;;;4933943;29;20037;-79
2022/11/15 02:35:59;;;;;;;23.02;13.32;;;6.70;99.90;;;;;;4962503;28;20031;-80
2022/11/15 02:38:24;;;;;;;27.30;15.25;;;8.50;99.90;;;;;;4950017;29;20031;-77
2022/11/15 02:41:04;;;;;;;23.48;14.52;;;8.30;99.90;;;;;;4961534;28;20050;-78
2022/11/15 02:43:57;;;;;;;31.20;16.30;;;7.70;99.90;;;;;;4964584;28;20066;-79
2022/11/15 02:49:37;;;;;;;24.23;12.70;;;6.90;99.90;;;;;;4922375;29;20032;-78
2022/11/15 02:52:03;;;;;;;27.23;16.52;;;7.70;99.90;;;;;;4965704;28;20042;-78
2022/11/15 02:54:32;;;;;;;27.48;16.58;;;7.60;99.90;;;;;;4954179;28;20301;-78
2022/11/15 02:57:05;;;;;;;28.40;15.48;;;7.50;99.90;;;;;;4947357;28;20091;-79
2022/11/15 02:59:53;;;;;;;30.65;16.65;;;7.80;99.90;;;;;;4944550;29;20038;-78
2022/11/15 03:02:51;;;;;;;27.00;15.73;;;7.10;99.90;;;;;;4949907;28;20337;-79
2022/11/15 03:05:51;;;;;;;28.17;15.48;;;7.80;99.90;;;;;;4907756;29;20043;-79
2022/11/15 03:08:25;;;;;;;28.83;16.83;;;7.80;99.90;;;;;;4961585;28;20061;-78
2022/11/15 03:11:10;;;;;;;32.88;18.35;;;7.90;99.90;;;;;;4940267;28;20051;-79
2022/11/15 03:14:00;;;;;;;29.63;17.27;;;8.70;99.90;;;;;;4933943;29;20048;-77
2022/11/15 03:16:43;;;;;;;29.83;16.50;;;7.90;99.90;;;;;;4952379;29;20229;-78
2022/11/15 03:19:14;;;;;;;28.42;15.90;;;8.00;99.90;;;;;;4930180;28;20086;-80
2022/11/15 03:21:40;;;;;;;30.23;15.40;;;8.00;99.90;;;;;;4939746;29;20047;-80
2022/11/15 03:24:08;;;;;;;28.58;16.73;;;7.00;99.90;;;;;;4941140;29;20520;-78
2022/11/15 03:26:38;;;;;;;30.30;16.73;;;8.40;99.90;;;;;;4946137;29;20326;-80
2022/11/15 03:29:11;;;;;;;28.08;16.15;;;8.40;99.90;;;;;;4937784;28;20559;-79
2022/11/15 03:31:47;;;;;;;25.85;16.33;;;7.60;99.90;;;;;;4951535;28;20313;-79
2022/11/15 03:34:20;;;;;;;29.25;16.23;;;8.20;99.90;;;;;;4935991;28;20241;-78
2022/11/15 03:36:46;;;;;;;25.38;14.85;;;7.70;99.90;;;;;;4955298;29;20233;-78
2022/11/15 03:39:13;;;;;;;24.23;12.95;;;8.00;99.90;;;;;;4925130;28;20031;-79
2022/11/15 03:41:42;;;;;;;27.25;16.08;;;8.10;99.90;;;;;;4956123;28;20039;-78
2022/11/15 03:44:11;;;;;;;29.67;16.38;;;8.10;99.90;;;;;;4928650;28;20222;-77
2022/11/15 03:47:02;;;;;;;29.15;16.00;;;7.40;99.90;;;;;;4929823;29;20037;-79
2022/11/15 03:49:34;;;;;;;27.95;15.18;;;8.40;99.90;;;;;;4935797;29;20204;-79
2022/11/15 03:52:02;;;;;;;23.77;13.63;;;7.90;99.90;;;;;;4956885;28;20063;-79
2022/11/15 03:54:27;;;;;;;29.85;17.60;;;8.70;99.90;;;;;;4929509;29;20082;-78
2022/11/15 03:56:54;;;;;;;29.33;15.20;;;;;;;;;;4923940;29;20035;-78
2022/11/15 03:59:19;;;;;;;27.90;16.10;;;8.90;99.90;;;;;;4945622;28;20039;-80
2022/11/15 04:01:45;;;;;;;29.92;16.67;;;8.30;99.90;;;;;;4902280;29;20047;-78
2022/11/15 04:04:11;;;;;;;30.40;16.70;;;8.10;99.90;;;;;;4933818;29;20254;-78
2022/11/15 04:06:36;;;;;;;30.00;16.65;;;8.20;99.90;;;;;;4929713;29;20075;-79
2022/11/15 04:09:03;;;;;;;31.67;16.60;;;8.70;99.90;;;;;;4934269;28;20027;-78
2022/11/15 04:11:28;;;;;;;28.58;16.08;;;8.40;99.90;;;;;;4951834;28;20047;-78
2022/11/15 04:13:54;;;;;;;32.00;15.98;;;;;;;;;;4957574;28;20043;-80
2022/11/15 04:16:20;;;;;;;34.22;17.63;;;;;;;;;;4968223;28;20088;-78
2022/11/15 04:24:11;;;;;;;30.70;16.73;;;8.40;99.90;;;;;;4936780;29;20047;-79
2022/11/15 04:24:16;;;;;;;32.28;17.73;;;8.30;99.90;;;;;;4953229;28;20043;-79
2022/11/15 04:26:42;;;;;;;38.75;17.90;;;8.20;99.90;;;;;;4941273;28;20019;-80
2022/11/15 04:31:52;;;;;;;32.60;16.77;;;8.00;99.90;;;;;;4954589;28;20245;-80
2022/11/15 04:34:17;;;;;;;38.20;17.27;;;8.40;99.90;;;;;;4921575;28;20030;-80
2022/11/15 04:39:27;;;;;;;38.00;18.00;;;8.30;99.90;;;;;;4967906;28;20154;-79
2022/11/15 04:41:53;;;;;;;31.92;16.60;;;8.70;99.90;;;;;;4949197;28;20784;-78
2022/11/15 04:44:18;;;;;;;42.40;18.63;;;8.40;99.90;;;;;;4957599;28;20118;-79
2022/11/15 04:46:44;;;;;;;39.30;19.75;;;8.30;99.90;;;;;;4964495;28;20262;-79
2022/11/15 04:49:10;;;;;;;35.95;18.38;;;8.30;99.90;;;;;;4927219;29;20054;-80
2022/11/15 04:51:36;;;;;;;38.50;19.60;;;8.10;99.90;;;;;;4986813;28;20042;-79
2022/11/15 04:54:01;;;;;;;47.10;21.40;;;8.60;99.90;;;;;;4946419;28;20111;-80
2022/11/15 04:56:27;;;;;;;41.85;20.05;;;8.90;99.90;;;;;;4961060;28;20106;-80
2022/11/15 04:58:52;;;;;;;44.70;23.42;;;8.30;99.90;;;;;;4963299;28;20069;-79
2022/11/15 05:01:18;;;;;;;36.75;17.90;;;9.70;99.90;;;;;;4951136;28;20085;-79
2022/11/15 05:06:55;;;;;;;31.52;16.77;;;8.70;99.90;;;;;;4971548;28;20197;-79
2022/11/15 05:09:24;;;;;;;45.47;21.92;;;;;;;;;;4963039;28;20050;-79
2022/11/15 05:11:50;;;;;;;32.30;15.30;;;9.00;99.90;;;;;;4954602;28;20238;-79
2022/11/15 05:14:16;;;;;;;34.15;17.65;;;8.50;99.90;;;;;;4937540;28;20050;-79
2022/11/15 05:16:42;;;;;;;32.47;17.42;;;8.70;99.90;;;;;;4959840;28;20209;-78
2022/11/15 05:19:08;;;;;;;34.38;18.92;;;8.60;99.90;;;;;;4974766;28;20140;-77
2022/11/15 05:21:34;;;;;;;36.97;18.83;;;8.90;99.90;;;;;;4951298;28;20071;-78
2022/11/15 05:24:00;;;;;;;45.88;22.65;;;8.90;99.90;;;;;;4966764;28;20026;-79
2022/11/15 05:26:26;;;;;;;40.53;19.52;;;9.80;99.90;;;;;;4950314;28;20046;-78
2022/11/15 05:28:57;;;;;;;43.63;19.83;;;8.60;99.90;;;;;;4935020;28;20049;-77
2022/11/15 05:31:23;;;;;;;38.55;19.05;;;8.70;99.90;;;;;;4948509;28;20085;-77
2022/11/15 05:33:53;;;;;;;41.35;20.10;;;9.00;99.90;;;;;;4950361;28;20027;-79
2022/11/15 05:36:35;;;;;;;39.65;19.58;;;8.70;99.90;;;;;;4936994;28;20116;-78
2022/11/15 05:39:03;;;;;;;35.90;17.35;;;9.70;99.90;;;;;;4966755;28;20019;-78
2022/11/15 05:41:57;;;;;;;53.08;24.70;;;9.00;99.90;;;;;;4970256;28;20051;-79
2022/11/15 05:44:25;;;;;;;40.45;20.52;;;8.20;99.90;;;;;;4964127;28;20066;-79
2022/11/15 05:46:55;;;;;;;57.10;25.48;;;9.20;99.90;;;;;;4940602;29;20122;-78
2022/11/15 05:49:27;;;;;;;53.10;22.75;;;9.60;99.90;;;;;;4958615;29;20106;-78
2022/11/15 05:51:53;;;;;;;39.58;20.02;;;9.10;99.90;;;;;;4963793;28;20145;-79
2022/11/15 05:54:21;;;;;;;32.65;17.58;;;8.90;99.90;;;;;;4946555;28;20041;-81
2022/11/15 05:56:47;;;;;;;51.67;23.73;;;9.10;99.90;;;;;;4939141;29;20114;-78
2022/11/15 05:59:13;;;;;;;39.85;20.42;;;9.20;99.90;;;;;;4957002;28;20226;-80
2022/11/15 06:01:39;;;;;;;44.13;21.27;;;9.20;99.90;;;;;;4938148;28;20058;-79
2022/11/15 06:04:05;;;;;;;58.47;24.38;;;9.30;99.90;;;;;;4961528;28;20033;-78
2022/11/15 06:06:30;;;;;;;65.18;26.85;;;8.90;99.90;;;;;;4932466;28;20046;-78
2022/11/15 06:08:56;;;;;;;52.53;24.95;;;9.20;99.90;;;;;;4981340;28;20319;-78
2022/11/15 06:11:22;;;;;;;56.22;23.67;;;9.20;99.90;;;;;;4931943;29;20086;-80
2022/11/15 06:13:47;;;;;;;51.90;23.92;;;9.10;99.90;;;;;;4926672;28;20167;-77
2022/11/15 06:16:13;;;;;;;53.03;22.48;;;8.80;99.90;;;;;;4950417;28;20046;-78
2022/11/15 06:18:39;;;;;;;51.97;24.33;;;9.50;99.90;;;;;;4960124;28;20062;-77
2022/11/15 06:21:05;;;;;;;50.33;23.88;;;10.70;99.90;;;;;;4942505;28;20038;-78
2022/11/15 06:23:35;;;;;;;79.53;31.65;;;9.50;99.90;;;;;;4962613;28;20077;-80
2022/11/15 06:26:02;;;;;;;69.45;27.65;;;9.20;99.90;;;;;;4948691;28;20045;-77
2022/11/15 06:28:33;;;;;;;63.65;29.15;;;9.30;99.90;;;;;;4959106;28;20066;-78
2022/11/15 06:31:07;;;;;;;43.97;20.00;;;9.70;99.90;;;;;;4947739;28;20051;-78
2022/11/15 06:33:33;;;;;;;45.97;22.50;;;9.40;99.90;;;;;;4972541;28;20045;-79
2022/11/15 06:36:03;;;;;;;62.72;28.80;;;9.80;99.90;;;;;;4934650;28;20019;-79
2022/11/15 06:38:29;;;;;;;59.30;27.92;;;9.40;99.90;;;;;;4967256;28;20027;-79
2022/11/15 06:41:00;;;;;;;50.53;24.67;;;9.50;99.90;;;;;;4972084;28;20045;-78
2022/11/15 06:43:26;;;;;;;49.80;23.98;;;9.50;99.90;;;;;;4972263;28;20035;-78
2022/11/15 06:45:52;;;;;;;44.60;22.02;;;9.50;99.90;;;;;;4928326;29;20031;-79
2022/11/15 06:48:22;;;;;;;61.50;28.70;;;9.90;99.90;;;;;;4933795;28;20037;-81
2022/11/15 06:50:52;;;;;;;71.35;29.65;;;9.50;99.90;;;;;;4952748;29;20035;-79
2022/11/15 06:53:18;;;;;;;72.72;30.17;;;9.60;99.90;;;;;;4978508;28;20035;-80
2022/11/15 06:55:44;;;;;;;60.92;28.42;;;9.70;99.90;;;;;;4946713;29;20039;-81
2022/11/15 06:58:10;;;;;;;51.78;25.88;;;9.60;99.90;;;;;;4949084;28;20110;-77
2022/11/15 07:00:35;;;;;;;54.35;25.95;;;10.20;99.90;;;;;;4944090;28;20066;-80
2022/11/15 07:03:02;;;;;;;64.03;30.35;;;10.20;99.90;;;;;;4945272;28;20066;-80
2022/11/15 07:05:28;;;;;;;57.53;28.25;;;9.70;99.90;;;;;;4949184;28;20085;-78
2022/11/15 07:07:55;;;;;;;53.28;27.20;;;10.10;99.90;;;;;;4951612;28;20026;-78
2022/11/15 07:10:23;;;;;;;51.00;23.65;;;9.80;99.90;;;;;;4929250;29;20356;-79
2022/11/15 07:12:50;;;;;;;52.30;25.55;;;10.00;99.90;;;;;;4944620;29;20078;-80
2022/11/15 07:15:23;;;;;;;45.03;22.23;;;10.30;99.90;;;;;;4937704;29;20034;-78
2022/11/15 07:17:51;;;;;;;48.42;24.63;;;10.40;99.90;;;;;;4960312;29;20071;-80
2022/11/15 07:20:18;;;;;;;48.90;24.70;;;9.90;99.90;;;;;;4943582;29;20083;-81
2022/11/15 07:25:45;;;;;;;49.25;26.13;;;10.60;99.90;;;;;;4936434;28;20039;-79
2022/11/15 07:28:11;;;;;;;44.53;24.45;;;;;;;;;;4961835;29;20082;-80
2022/11/15 07:30:37;;;;;;;49.83;26.58;;;10.00;99.90;;;;;;4956140;28;20039;-79
2022/11/15 07:33:05;;;;;;;49.17;27.58;;;10.10;99.90;;;;;;4943941;29;20046;-79
2022/11/15 07:35:34;;;;;;;48.67;23.77;;;10.00;99.90;;;;;;4945920;28;20046;-80
2022/11/15 07:38:01;;;;;;;49.67;26.27;;;10.30;99.90;;;;;;4942637;28;20035;-80
2022/11/15 07:40:34;;;;;;;61.22;26.65;;;10.70;99.90;;;;;;4928029;29;20094;-79
2022/11/15 07:43:05;;;;;;;63.70;28.50;;;10.90;99.90;;;;;;4920016;29;20023;-79
2022/11/15 07:45:33;;;;;;;56.88;28.08;;;10.30;99.90;;;;;;4937925;29;20049;-80
2022/11/15 07:47:59;;;;;;;46.45;24.40;;;10.90;99.90;;;;;;4929262;29;20042;-78
2022/11/15 07:50:26;;;;;;;47.53;25.02;;;10.80;99.90;;;;;;4920749;29;20043;-78
2022/11/15 07:52:59;;;;;;;56.65;28.00;;;11.70;99.90;;;;;;4962047;29;20348;-80
2022/11/15 07:55:27;;;;;;;50.30;24.83;;;13.10;99.90;;;;;;4944800;29;20035;-79
2022/11/15 07:57:53;;;;;;;41.22;22.40;;;10.30;99.90;;;;;;4941882;29;20215;-78
2022/11/15 08:00:19;;;;;;;55.20;25.88;;;10.70;99.90;;;;;;4947803;28;20030;-78
2022/11/15 08:02:45;;;;;;;40.88;23.58;;;10.80;99.90;;;;;;4931011;29;20070;-77
2022/11/15 08:05:11;;;;;;;44.97;24.30;;;10.80;99.90;;;;;;4958069;28;20032;-77
2022/11/15 08:07:37;;;;;;;33.67;20.88;;;11.60;99.90;;;;;;4932260;29;20508;-79
2022/11/15 08:10:05;;;;;;;45.55;24.08;;;11.10;99.90;;;;;;4935741;28;20062;-77
2022/11/15 08:12:31;;;;;;;49.28;26.38;;;10.70;99.90;;;;;;4964093;28;20106;-76
2022/11/15 08:14:57;;;;;;;44.75;23.45;;;11.20;99.90;;;;;;4952261;28;20042;-78
2022/11/15 08:17:26;;;;;;;32.65;20.60;;;11.30;99.90;;;;;;4960344;29;20035;-78
2022/11/15 08:19:52;;;;;;;46.15;26.05;;;11.10;99.90;;;;;;4959957;29;20035;-78
2022/11/15 08:22:18;;;;;;;42.75;24.95;;;11.50;99.90;;;;;;4967347;28;20113;-78
2022/11/15 08:24:44;;;;;;;38.03;23.30;;;11.00;99.90;;;;;;4976341;28;20042;-77
2022/11/15 08:27:19;;;;;;;45.53;21.98;;;11.00;99.90;;;;;;4948805;28;20073;-78
2022/11/15 08:29:45;;;;;;;38.30;21.67;;;11.60;99.90;;;;;;4908335;29;20028;-76
2022/11/15 08:32:13;;;;;;;33.75;20.77;;;11.60;99.90;;;;;;4957226;28;20119;-78
2022/11/15 08:34:38;;;;;;;38.97;22.33;;;11.00;99.90;;;;;;4964265;28;20245;-77
2022/11/15 08:37:07;;;;;;;36.10;21.13;;;11.80;99.90;;;;;;4962681;28;20042;-79
2022/11/15 08:39:33;;;;;;;37.33;21.25;;;11.70;99.90;;;;;;4935071;28;20026;-77
2022/11/15 08:41:59;;;;;;;31.38;20.58;;;11.20;99.90;;;;;;4934688;28;20118;-79
2022/11/15 08:44:24;;;;;;;31.70;19.92;;;11.70;99.90;;;;;;4946959;28;20041;-79
2022/11/15 08:47:19;;;;;;;37.25;22.23;;;11.80;99.90;;;;;;4929358;29;20039;-79
2022/11/15 08:50:05;;;;;;;30.98;19.15;;;13.00;99.90;;;;;;4960523;28;20097;-77
2022/11/15 08:52:31;;;;;;;38.28;22.15;;;11.30;99.90;;;;;;4935528;28;20048;-78
2022/11/15 08:54:57;;;;;;;33.75;18.70;;;11.90;99.90;;;;;;4951423;28;20027;-79
2022/11/15 08:57:23;;;;;;;30.33;20.42;;;11.90;99.90;;;;;;4932392;29;20114;-80
2022/11/15 08:59:49;;;;;;;28.27;19.70;;;11.80;99.90;;;;;;4965529;29;20039;-80
2022/11/15 09:02:15;;;;;;;32.53;19.90;;;11.50;99.90;;;;;;4919820;28;20086;-80
2022/11/15 09:04:42;;;;;;;30.48;19.45;;;11.90;99.90;;;;;;4932144;29;20110;-79
2022/11/15 09:07:12;;;;;;;28.63;17.08;;;11.40;99.90;;;;;;4966335;28;20070;-79
2022/11/15 09:09:38;;;;;;;33.40;18.83;;;11.90;99.90;;;;;;4948260;29;20066;-79
2022/11/15 09:12:05;;;;;;;29.48;19.85;;;11.50;99.90;;;;;;4932209;28;20047;-80
2022/11/15 09:14:30;;;;;;;29.60;18.35;;;12.00;99.90;;;;;;4934988;28;20037;-79
2022/11/15 09:16:56;;;;;;;30.75;20.02;;;11.80;99.90;;;;;;4936188;28;20035;-79
2022/11/15 09:19:22;;;;;;;29.38;18.70;;;12.10;99.90;;;;;;4967567;28;20109;-79
2022/11/15 09:21:48;;;;;;;24.48;16.50;;;12.10;99.90;;;;;;4951946;28;20046;-78
2022/11/15 09:24:13;;;;;;;22.17;14.90;;;11.70;99.90;;;;;;4951062;28;20038;-78
2022/11/15 09:26:40;;;;;;;26.13;16.73;;;11.70;99.90;;;;;;4966892;28;20348;-79
2022/11/15 09:29:06;;;;;;;28.60;18.10;;;11.90;99.90;;;;;;4951611;28;20105;-79
2022/11/15 09:31:41;;;;;;;28.60;17.60;;;11.80;99.90;;;;;;4966978;28;20141;-78
2022/11/15 09:34:06;;;;;;;;;;;12.10;99.90;;;;;;4951793;28;20238;-77
2022/11/15 09:36:32;;;;;;;25.20;17.02;;;12.00;99.90;;;;;;4953591;28;19976;-79
2022/11/15 09:38:58;;;;;;;29.90;16.40;;;11.80;99.90;;;;;;4951612;28;20539;-79
2022/11/15 09:41:34;;;;;;;25.33;16.30;;;12.10;99.90;;;;;;4919602;28;20098;-78
2022/11/15 09:44:34;;;;;;;30.45;18.38;;;12.30;99.90;;;;;;4951149;28;20033;-78
2022/11/15 09:47:26;;;;;;;26.83;17.70;;;12.30;99.90;;;;;;4946288;28;20033;-77
2022/11/15 09:49:55;;;;;;;24.02;16.63;;;12.10;99.90;;;;;;4950510;28;20041;-77
2022/11/15 09:52:21;;;;;;;31.60;17.67;;;11.90;99.90;;;;;;4949994;28;20078;-79
2022/11/15 09:54:50;;;;;;;25.98;16.30;;;12.30;99.90;;;;;;4966942;28;20026;-77
2022/11/15 09:57:31;;;;;;;27.23;17.38;;;12.00;99.90;;;;;;4965886;28;20077;-79
2022/11/15 10:00:12;;;;;;;26.25;16.98;;;12.40;99.90;;;;;;4950647;28;20034;-78
2022/11/15 10:02:52;;;;;;;23.35;16.48;;;12.20;99.90;;;;;;4956699;28;20034;-79
2022/11/15 10:05:22;;;;;;;24.80;16.80;;;12.20;99.90;;;;;;4964816;28;20309;-79
2022/11/15 10:08:13;;;;;;;23.20;17.30;;;12.50;99.90;;;;;;4962897;28;20083;-78
2022/11/15 10:10:42;;;;;;;23.58;16.08;;;12.40;99.90;;;;;;4953781;28;20078;-80
2022/11/15 10:13:22;;;;;;;23.65;16.52;;;12.10;99.90;;;;;;4957624;28;20105;-82
2022/11/15 10:15:50;;;;;;;27.27;16.90;;;9.90;99.90;;;;;;4975259;28;20214;-81
2022/11/15 10:18:18;;;;;;;21.90;16.80;;;12.20;99.90;;;;;;4950589;29;20039;-79
2022/11/15 10:21:20;;;;;;;25.38;17.13;;;12.00;99.90;;;;;;4951368;28;20057;-80
2022/11/15 10:23:46;;;;;;;26.83;18.30;;;12.00;99.90;;;;;;4950543;28;20187;-81
2022/11/15 10:26:15;;;;;;;26.35;16.00;;;12.00;99.90;;;;;;4954377;28;20151;-81
2022/11/15 10:28:41;;;;;;;22.52;15.30;;;12.10;99.90;;;;;;4963362;28;20035;-80
2022/11/15 10:31:25;;;;;;;26.05;16.88;;;12.60;99.90;;;;;;4956513;28;20440;-81
2022/11/15 10:33:57;;;;;;;23.75;17.60;;;12.50;99.90;;;;;;4954099;28;20548;-80
2022/11/15 10:36:25;;;;;;;25.98;17.23;;;12.50;99.90;;;;;;4947696;28;20045;-81
2022/11/15 10:38:50;;;;;;;23.80;16.05;;;12.10;99.90;;;;;;4947302;29;20043;-80
2022/11/15 10:41:27;;;;;;;21.45;15.38;;;12.00;99.90;;;;;;4950816;28;20045;-81
2022/11/15 10:44:20;;;;;;;21.95;16.38;;;12.40;99.90;;;;;;4953095;28;20046;-81
2022/11/15 10:46:55;;;;;;;19.15;14.23;;;12.30;99.90;;;;;;4958265;28;20034;-81
2022/11/15 10:49:24;;;;;;;;;;;12.20;99.90;;;;;;4959586;28;20039;-80
2022/11/15 10:52:16;;;;;;;19.70;13.50;;;12.20;99.90;;;;;;4963793;28;20033;-80
2022/11/15 10:54:56;;;;;;;22.25;14.50;;;12.50;99.90;;;;;;4947553;29;20113;-81
2022/11/15 10:57:29;;;;;;;24.15;16.35;;;12.20;99.90;;;;;;4949765;28;20045;-82
2022/11/15 10:59:59;;;;;;;20.85;14.88;;;12.60;99.90;;;;;;4961171;28;20046;-81
2022/11/15 11:02:28;;;;;;;20.48;14.77;;;12.10;99.90;;;;;;4969234;28;20042;-80
2022/11/15 11:04:54;;;;;;;21.20;14.90;;;12.40;99.90;;;;;;4966891;28;20031;-81
2022/11/15 11:07:23;;;;;;;23.23;15.73;;;12.20;99.90;;;;;;4950180;29;20042;-81
2022/11/15 11:10:02;;;;;;;18.80;14.18;;;12.40;99.90;;;;;;4949692;28;20249;-81
2022/11/15 11:12:31;;;;;;;31.20;19.08;;;12.50;99.90;;;;;;4958718;28;20042;-81
2022/11/15 11:14:59;;;;;;;22.27;16.52;;;12.60;99.90;;;;;;4947593;29;20258;-82
2022/11/15 11:17:42;;;;;;;22.88;17.13;;;12.50;99.90;;;;;;4938773;28;20121;-81
2022/11/15 11:20:27;;;;;;;27.88;17.88;;;12.20;99.90;;;;;;4964665;28;20053;-82
2022/11/15 11:23:11;;;;;;;27.30;19.58;;;12.20;99.90;;;;;;4962281;28;20050;-82
2022/11/15 11:25:46;;;;;;;26.83;19.60;;;12.70;99.90;;;;;;4960305;28;20147;-81
2022/11/15 11:28:39;;;;;;;21.92;17.33;;;12.40;99.90;;;;;;4948273;29;20042;-82
2022/11/15 11:31:32;;;;;;;25.63;17.63;;;12.50;99.90;;;;;;4961227;29;20050;-80
2022/11/15 11:34:18;;;;;;;23.35;17.58;;;12.70;99.90;;;;;;4958642;28;20027;-81
2022/11/15 11:37:03;;;;;;;26.33;18.95;;;12.30;99.90;;;;;;4944282;28;20042;-80
2022/11/15 11:39:48;;;;;;;26.23;18.20;;;12.30;99.90;;;;;;4988255;28;20086;-80
2022/11/15 11:42:30;;;;;;;28.65;19.15;;;12.60;99.90;;;;;;4958595;28;20054;-81
2022/11/15 11:45:49;;;;;;;26.00;19.40;;;12.30;99.90;;;;;;4962780;28;20409;-79
2022/11/15 11:48:41;;;;;;;26.02;17.98;;;12.90;99.90;;;;;;4965362;28;20031;-80
2022/11/15 11:51:33;;;;;;;25.45;17.83;;;12.60;99.90;;;;;;4963789;28;20456;-80
2022/11/15 11:57:04;;;;;;;22.25;17.27;;;12.20;99.90;;;;;;4962297;28;20041;-79
2022/11/15 11:59:43;;;;;;;22.13;15.55;;;12.80;99.90;;;;;;4958700;29;20039;-78
2022/11/15 12:02:20;;;;;;;19.70;13.00;;;12.90;99.90;;;;;;4948249;28;20043;-79
2022/11/15 12:04:52;;;;;;;18.92;15.10;;;13.10;99.90;;;;;;4980262;28;20312;-80
2022/11/15 12:07:30;;;;;;;20.85;16.05;;;12.80;99.90;;;;;;4968402;28;20026;-79
2022/11/15 12:10:05;;;;;;;19.85;15.60;;;13.20;99.90;;;;;;4948651;28;20121;-81
2022/11/15 12:12:54;;;;;;;19.00;14.57;;;13.00;99.90;;;;;;4966982;28;20301;-81
2022/11/15 12:15:25;;;;;;;18.17;13.63;;;12.70;99.90;;;;;;4958778;29;20054;-80
2022/11/15 12:18:00;;;;;;;14.25;10.68;;;13.10;99.90;;;;;;4928041;28;20110;-81
2022/11/15 12:20:30;;;;;;;15.38;11.30;;;12.70;99.90;;;;;;4980340;28;20062;-80
2022/11/15 12:23:11;;;;;;;13.48;9.77;;;12.70;99.90;;;;;;4966326;28;20038;-80
2022/11/15 12:25:55;;;;;;;11.90;9.10;;;12.70;99.90;;;;;;4969085;28;20042;-81
2022/11/15 12:28:42;;;;;;;11.20;9.18;;;13.10;99.90;;;;;;4967944;28;20250;-80
2022/11/15 12:31:16;;;;;;;10.43;8.35;;;12.50;99.90;;;;;;4978457;28;20031;-80
2022/11/15 12:33:44;;;;;;;11.10;7.50;;;12.70;99.90;;;;;;4939359;28;20065;-80
2022/11/15 12:36:20;;;;;;;8.27;6.95;;;12.60;99.90;;;;;;4969144;28;20050;-80
2022/11/15 12:38:55;;;;;;;9.88;6.90;;;12.30;99.90;;;;;;4948850;29;20146;-80
2022/11/15 12:41:27;;;;;;;9.73;6.38;;;12.50;99.90;;;;;;4964418;29;20306;-81
2022/11/15 12:43:53;;;;;;;10.35;6.63;;;12.50;99.90;;;;;;4965494;29;20027;-80
2022/11/15 12:46:30;;;;;;;9.02;5.95;;;12.40;99.90;;;;;;4965790;29;20062;-80
2022/11/15 12:48:59;;;;;;;7.93;6.30;;;10.40;99.90;;;;;;4958091;28;20102;-80
2022/11/15 12:51:54;;;;;;;8.30;5.28;;;12.50;99.90;;;;;;4948649;28;20035;-80
2022/11/15 12:54:23;;;;;;;6.55;5.13;;;12.50;99.90;;;;;;4957738;28;20506;-80
2022/11/15 12:57:03;;;;;;;7.53;5.05;;;12.40;99.90;;;;;;4968864;28;20038;-79
2022/11/15 12:59:52;;;;;;;6.80;4.72;;;12.20;99.90;;;;;;4966439;28;20498;-80
2022/11/15 13:02:23;;;;;;;6.53;4.35;;;12.20;99.90;;;;;;4967350;28;20106;-80
2022/11/15 13:04:54;;;;;;;6.95;5.25;;;12.20;99.90;;;;;;4968201;28;20096;-81
2022/11/15 13:07:35;;;;;;;6.50;5.13;;;12.40;99.90;;;;;;4948484;29;20090;-79
2022/11/15 13:10:27;;;;;;;6.50;4.00;;;12.30;99.90;;;;;;4951947;29;20031;-80
2022/11/15 13:12:58;;;;;;;6.47;3.92;;;12.20;99.90;;;;;;4961244;29;20051;-80
2022/11/15 13:15:40;;;;;;;7.40;4.72;;;12.30;99.90;;;;;;4929185;29;20043;-80
2022/11/15 13:18:27;;;;;;;5.68;4.78;;;12.30;99.90;;;;;;4945980;29;20039;-80